Time;durP1;ratioP1;P1;durP2;ratioP2;P2;SDS_P1;SDS_P2;PMS_P1;PMS_P2;Temp;Humidity;BMP_temperature;BMP_pressure;BME280_temperature;BME280_humidity;BME280_pressure;Samples;Min_cycle;Max_cycle;Signal;HPM_P1;HPM_P2
2022/09/13 00:01:21;;;;;;;;;14.20;11.80;;;;;21.01;55.25;99201.25;5090564;28;8838;-81
2022/09/13 00:03:50;;;;;;;;;13.80;13.60;;;;;20.87;55.25;99193.13;5071557;28;8873;-82
2022/09/13 00:06:20;;;;;;;;;15.80;14.60;;;;;20.87;55.28;99193.13;5080671;28;8823;-82
2022/09/13 00:08:52;;;;;;;;;12.00;12.00;;;;;20.90;55.69;99200.06;5069192;28;8952;-79
2022/09/13 00:11:23;;;;;;;;;16.60;16.00;;;;;20.86;55.51;99195.84;5052073;28;9083;-81
2022/09/13 00:13:54;;;;;;;;;15.00;13.60;;;;;20.86;55.43;99196.69;5052455;28;8891;-87
2022/09/13 00:16:25;;;;;;;;;13.40;13.20;;;;;20.86;55.52;99196.69;5066964;28;8860;-82
2022/09/13 00:18:54;;;;;;;;;13.60;13.40;;;;;20.84;55.72;99207.38;5030617;28;8849;-82
2022/09/13 00:21:24;;;;;;;;;13.00;13.00;;;;;20.76;56.12;99200.75;5067682;28;8864;-81
2022/09/13 00:23:55;;;;;;;;;12.60;12.00;;;;;20.71;55.98;99205.38;5055403;28;8846;-79
2022/09/13 00:26:26;;;;;;;;;18.40;16.60;;;;;20.71;56.03;99202.75;5079033;28;8904;-81
2022/09/13 00:28:57;;;;;;;;;12.80;12.40;;;;;20.60;56.30;99214.72;5049085;28;8885;-86
2022/09/13 00:31:27;;;;;;;;;12.40;12.00;;;;;20.65;56.12;99214.50;5066092;28;8846;-83
2022/09/13 00:33:59;;;;;;;;;13.40;12.40;;;;;20.62;56.39;99209.31;5065926;28;8862;-82
2022/09/13 00:36:28;;;;;;;;;17.60;14.80;;;;;20.61;56.38;99208.47;5049040;28;8906;-80
2022/09/13 00:38:59;;;;;;;;;16.80;16.80;;;;;20.67;56.27;99211.78;5031794;28;8854;-82
2022/09/13 00:41:28;;;;;;;;;13.80;13.40;;;;;20.64;55.93;99197.75;5078691;28;8834;-80
2022/09/13 00:43:59;;;;;;;;;15.40;15.40;;;;;20.66;56.15;99208.25;5070965;28;8998;-81
2022/09/13 00:46:35;;;;;;;;;13.80;13.20;;;;;20.70;55.97;99195.72;5070913;28;8855;-82
2022/09/13 00:49:14;;;;;;;;;14.40;14.00;;;;;20.70;56.37;99198.34;5066555;28;8856;-81
2022/09/13 00:51:47;;;;;;;;;16.60;13.80;;;;;20.65;56.26;99201.25;5049632;28;8983;-81
2022/09/13 00:54:19;;;;;;;;;14.20;11.20;;;;;20.63;56.05;99209.25;5047468;28;9193;-80
2022/09/13 00:56:52;;;;;;;;;13.20;13.00;;;;;20.61;56.39;99205.81;5028291;28;9013;-83
2022/09/13 00:59:27;;;;;;;;;14.40;14.40;;;;;20.45;56.86;99207.44;5022151;28;8878;-80
2022/09/13 01:01:57;;;;;;;;;13.60;13.60;;;;;20.44;56.63;99205.72;5032318;28;8866;-87
2022/09/13 01:04:29;;;;;;;;;15.40;14.20;;;;;20.37;57.20;99204.28;5030282;28;9592;-81
2022/09/13 01:07:02;;;;;;;;;6.40;6.00;;;;;20.44;56.74;99195.13;5033431;28;8854;-81
2022/09/13 01:09:35;;;;;;;;;15.80;13.60;;;;;20.46;56.77;99198.56;5023953;28;8897;-81
2022/09/13 01:12:09;;;;;;;;;10.80;10.00;;;;;20.48;56.78;99190.56;5044350;28;8876;-81
2022/09/13 01:14:38;;;;;;;;;13.60;12.80;;;;;20.44;57.04;99197.78;5049059;28;8812;-80
2022/09/13 01:17:08;;;;;;;;;15.00;13.60;;;;;20.41;57.04;99201.41;5065983;28;8836;-83
2022/09/13 01:19:36;;;;;;;;;14.00;13.20;;;;;20.40;57.02;99190.91;5064825;28;8864;-82
2022/09/13 01:22:44;;;;;;;;;14.00;12.20;;;;;20.55;56.14;99200.78;5048783;28;8874;-81
2022/09/13 01:25:51;;;;;;;;;13.00;13.00;;;;;20.54;56.65;99200.84;5064923;28;8840;-80
2022/09/13 01:28:42;;;;;;;;;15.40;13.60;;;;;20.52;56.55;99200.91;5036373;28;8898;-85
2022/09/13 01:31:19;;;;;;;;;13.80;13.80;;;;;20.45;57.00;99197.72;5041161;28;8830;-81
2022/09/13 01:34:02;;;;;;;;;16.20;14.40;;;;;20.47;56.95;99194.97;5089071;28;8897;-82
2022/09/13 01:36:57;;;;;;;;;15.00;14.60;;;;;20.48;56.84;99195.84;5088987;28;8873;-81
2022/09/13 01:39:43;;;;;;;;;16.00;14.60;;;;;20.41;57.00;99182.88;5034393;28;8976;-80
2022/09/13 01:42:19;;;;;;;;;16.40;14.40;;;;;20.41;57.01;99187.31;5014000;28;8885;-81
2022/09/13 01:45:03;;;;;;;;;17.60;16.40;;;;;20.43;57.00;99178.38;5031625;28;8873;-82
2022/09/13 01:47:43;;;;;;;;;12.40;11.60;;;;;20.41;56.75;99171.44;5012589;28;8849;-81
2022/09/13 01:50:20;;;;;;;;;16.60;15.60;;;;;20.39;56.84;99173.28;5041230;28;8854;-81
2022/09/13 01:52:54;;;;;;;;;15.40;15.40;;;;;20.34;57.32;99170.00;5000612;28;8860;-82
2022/09/13 01:55:34;;;;;;;;;16.00;15.00;;;;;20.40;56.93;99175.03;5027859;28;8897;-83
2022/09/13 01:58:15;;;;;;;;;14.60;14.60;;;;;20.37;57.27;99173.34;5010299;28;8857;-81
2022/09/13 02:00:52;;;;;;;;;16.20;15.20;;;;;20.32;57.39;99166.56;5027125;28;8908;-82
2022/09/13 02:03:28;;;;;;;;;11.00;11.00;;;;;20.29;57.67;99170.22;5042706;28;8892;-84
2022/09/13 02:06:01;;;;;;;;;17.40;17.40;;;;;20.25;57.74;99166.00;5029771;28;8886;-81
2022/09/13 02:08:38;;;;;;;;;17.20;15.20;;;;;20.25;57.76;99166.00;5047169;28;8935;-84
2022/09/13 02:11:10;;;;;;;;;16.80;14.60;;;;;20.18;57.97;99161.91;5063093;28;8874;-82
2022/09/13 02:13:44;;;;;;;;;13.40;13.00;;;;;20.20;57.94;99160.06;5035366;28;8955;-82
2022/09/13 02:16:18;;;;;;;;;17.40;17.20;;;;;20.19;58.07;99159.19;5063624;28;8866;-83
2022/09/13 02:18:52;;;;;;;;;16.40;16.40;;;;;20.17;58.39;99163.72;5086647;28;9679;-80
2022/09/13 02:21:27;;;;;;;;;20.00;18.00;;;;;20.14;58.46;99163.84;5104004;28;9027;-81
2022/09/13 02:24:02;;;;;;;;;13.60;13.60;;;;;20.09;58.86;99155.25;5105056;28;8873;-79
2022/09/13 02:26:32;;;;;;;;;16.40;15.80;;;;;20.07;58.76;99151.81;5095993;28;8835;-81
2022/09/13 02:29:07;;;;;;;;;17.00;16.00;;;;;20.08;58.91;99153.53;5091682;28;8886;-81
2022/09/13 02:31:41;;;;;;;;;15.60;13.00;;;;;20.06;58.49;99152.75;5092859;28;8997;-83
2022/09/13 02:34:18;;;;;;;;;14.20;14.20;;;;;20.08;58.40;99155.34;5108511;28;8858;-85
2022/09/13 02:36:51;;;;;;;;;16.80;16.00;;;;;20.00;58.37;99153.00;5067484;28;8876;-85
2022/09/13 02:39:26;;;;;;;;;17.40;16.00;;;;;20.00;58.31;99145.94;5070359;28;8874;-82
2022/09/13 02:42:00;;;;;;;;;16.40;12.40;;;;;19.88;58.76;99148.28;5080909;28;8863;-82
2022/09/13 02:44:36;;;;;;;;;17.80;16.20;;;;;19.95;58.59;99157.69;5113092;27;8940;-83
2022/09/13 02:47:13;;;;;;;;;15.60;13.40;;;;;19.97;58.66;99161.09;5120943;27;8880;-81
2022/09/13 02:49:54;;;;;;;;;16.60;16.20;;;;;20.02;58.35;99153.84;5088842;28;8948;-81
2022/09/13 02:52:33;;;;;;;;;12.20;12.20;;;;;19.94;58.94;99155.94;5089252;28;8866;-80
2022/09/13 02:55:10;;;;;;;;;15.60;13.20;;;;;19.96;58.70;99156.72;5090129;28;8839;-88
2022/09/13 02:57:42;;;;;;;;;18.80;17.60;;;;;19.94;58.56;99158.59;5084869;28;9069;-84
2022/09/13 03:00:12;;;;;;;;;12.00;12.00;;;;;19.90;58.66;99155.22;5073536;28;8880;-80
2022/09/13 03:02:43;;;;;;;;;15.40;13.60;;;;;19.87;58.76;99160.66;5090784;28;8855;-82
2022/09/13 03:05:13;;;;;;;;;19.00;18.40;;;;;19.86;58.87;99157.16;5094984;28;8839;-82
2022/09/13 03:07:42;;;;;;;;;17.00;17.00;;;;;19.85;58.89;99160.72;5099388;28;8854;-81
2022/09/13 03:10:14;;;;;;;;;16.80;16.20;;;;;19.84;59.04;99164.28;5099112;28;8891;-81
2022/09/13 03:13:03;;;;;;;;;15.80;12.20;;;;;19.84;59.39;99166.94;5097402;28;8952;-78
2022/09/13 03:15:49;;;;;;;;;17.00;15.60;;;;;19.88;59.23;99167.66;5093793;28;9592;-81
2022/09/13 03:18:36;;;;;;;;;45.25;38.25;;;;;19.88;59.22;99158.88;5109668;28;8851;-82
2022/09/13 03:21:18;;;;;;;;;47.75;37.50;;;;;19.81;59.91;99164.44;5120022;27;8866;-85
2022/09/13 03:24:01;;;;;;;;;16.80;13.60;;;;;19.84;59.82;99161.66;5070795;28;8826;-83
2022/09/13 03:26:42;;;;;;;;;11.00;11.00;;;;;19.84;59.32;99159.00;5072209;28;8927;-81
2022/09/13 03:29:23;;;;;;;;;17.00;16.00;;;;;19.80;59.57;99160.06;5088721;28;8842;-79
2022/09/13 03:32:04;;;;;;;;;17.00;15.80;;;;;19.85;59.44;99166.03;5107934;28;8875;-82
2022/09/13 03:34:43;;;;;;;;;17.20;16.60;;;;;19.83;59.47;99165.25;5111928;28;8945;-87
2022/09/13 03:37:22;;;;;;;;;15.80;14.20;;;;;19.81;59.54;99167.09;5110688;28;8869;-82
2022/09/13 03:39:59;;;;;;;;;18.60;18.60;;;;;19.75;59.71;99171.78;5093932;27;8861;-83
2022/09/13 03:42:34;;;;;;;;;17.80;17.80;;;;;19.78;59.62;99172.50;5112111;28;8853;-87
2022/09/13 03:45:06;;;;;;;;;17.60;16.20;;;;;19.73;59.60;99168.34;5097740;28;8868;-80
2022/09/13 03:47:38;;;;;;;;;17.80;16.40;;;;;19.71;59.82;99168.38;5090570;28;8890;-85
2022/09/13 03:50:09;;;;;;;;;17.80;16.00;;;;;19.64;59.92;99173.09;5090510;28;8897;-80
2022/09/13 03:52:39;;;;;;;;;17.60;16.80;;;;;19.61;60.01;99169.72;5074423;28;8906;-85
2022/09/13 03:55:14;;;;;;;;;19.20;19.20;;;;;19.58;60.23;99173.34;5084503;28;8863;-84
2022/09/13 03:57:42;;;;;;;;;20.20;18.80;;;;;19.53;60.21;99182.41;5054841;28;8872;-80
2022/09/13 04:00:14;;;;;;;;;61.00;50.25;;;;;19.56;60.25;99166.41;5054754;28;8936;-82
2022/09/13 04:02:42;;;;;;;;;31.20;28.60;;;;;19.54;60.13;99162.97;5089783;28;8962;-81
2022/09/13 04:05:11;;;;;;;;;20.80;20.20;;;;;19.57;60.10;99158.41;5074434;28;8880;-80
2022/09/13 04:07:41;;;;;;;;;15.80;15.80;;;;;19.55;60.05;99170.84;5077764;28;8840;-85
2022/09/13 04:10:10;;;;;;;;;23.00;18.80;;;;;19.52;60.27;99157.75;5071589;28;8860;-83
2022/09/13 04:12:41;;;;;;;;;20.80;19.60;;;;;19.52;60.46;99151.59;5071324;28;8960;-80
2022/09/13 04:15:10;;;;;;;;;26.20;21.80;;;;;19.44;60.58;99155.44;5072084;28;8924;-83
2022/09/13 04:17:38;;;;;;;;;62.00;49.50;;;;;19.46;60.46;99158.88;5053755;28;9078;-83
2022/09/13 04:20:07;;;;;;;;;28.80;26.40;;;;;19.50;60.43;99156.09;5036509;28;8879;-80
2022/09/13 04:22:36;;;;;;;;;25.40;23.40;;;;;19.47;60.36;99157.13;5053992;28;8848;-81
2022/09/13 04:25:07;;;;;;;;;44.75;34.25;;;;;19.47;60.45;99160.59;5070275;28;8878;-81
2022/09/13 04:27:35;;;;;;;;;60.25;49.50;;;;;19.49;60.38;99163.19;5027459;28;8916;-80
2022/09/13 04:30:04;;;;;;;;;28.80;27.40;;;;;19.50;60.26;99156.97;5005804;28;8875;-81
2022/09/13 04:32:33;;;;;;;;;60.00;48.25;;;;;19.47;60.33;99157.97;5020603;28;8879;-81
2022/09/13 04:35:02;;;;;;;;;23.80;21.40;;;;;19.50;60.35;99156.09;5035371;28;8873;-84
2022/09/13 04:37:30;;;;;;;;;27.60;26.20;;;;;19.51;60.17;99168.38;5014694;28;8855;-80
2022/09/13 04:39:59;;;;;;;;;25.60;22.60;;;;;19.55;60.13;99160.28;5108979;28;8866;-81
2022/09/13 04:42:29;;;;;;;;;22.60;22.60;;;;;19.60;59.92;99168.88;5070715;28;8893;-87
2022/09/13 04:44:57;;;;;;;;;26.60;24.00;;;;;19.54;60.38;99174.41;5100452;28;8875;-80
2022/09/13 04:47:26;;;;;;;;;20.60;20.00;;;;;19.62;59.79;99172.31;5075841;28;8895;-82
2022/09/13 04:49:54;;;;;;;;;23.80;21.80;;;;;19.66;59.65;99167.75;5089549;28;8892;-80
2022/09/13 04:52:23;;;;;;;;;22.20;22.20;;;;;19.71;59.51;99172.81;5069235;28;8846;-81
2022/09/13 04:54:51;;;;;;;;;23.40;21.80;;;;;19.70;59.50;99173.72;5069054;28;9629;-80
2022/09/13 04:57:20;;;;;;;;;21.40;19.00;;;;;19.75;59.40;99177.06;5057467;28;8990;-81
2022/09/13 04:59:50;;;;;;;;;19.80;19.20;;;;;19.72;59.51;99177.19;5079279;28;8870;-82
2022/09/13 05:02:18;;;;;;;;;20.20;20.00;;;;;19.67;59.37;99187.97;5079938;28;8857;-86
2022/09/13 05:04:47;;;;;;;;;18.20;18.20;;;;;19.79;58.83;99184.84;5053533;28;9039;-81
2022/09/13 05:07:16;;;;;;;;;22.40;22.40;;;;;19.82;58.92;99187.31;5070365;28;8881;-84
2022/09/13 05:09:44;;;;;;;;;18.20;18.20;;;;;19.95;58.45;99192.09;5084592;28;8844;-82
2022/09/13 05:12:13;;;;;;;;;23.40;21.80;;;;;19.93;58.35;99199.22;5090296;28;8962;-83
2022/09/13 05:14:41;;;;;;;;;16.00;16.00;;;;;20.03;58.14;99195.22;5089240;28;8832;-82
2022/09/13 05:17:11;;;;;;;;;15.20;13.80;;;;;20.13;57.79;99196.56;5053646;28;8892;-86
2022/09/13 05:19:40;;;;;;;;;17.40;16.40;;;;;20.24;57.58;99196.94;5092307;28;8855;-87
2022/09/13 05:22:08;;;;;;;;;21.20;18.40;;;;;20.37;57.17;99199.00;5084270;28;9657;-82
2022/09/13 05:24:37;;;;;;;;;19.40;17.00;;;;;20.45;56.80;99207.44;5088199;28;8924;-83
2022/09/13 05:27:06;;;;;;;;;20.40;18.80;;;;;20.54;56.56;99206.16;5091287;28;8847;-82
2022/09/13 05:29:34;;;;;;;;;19.20;18.60;;;;;20.59;56.00;99204.16;5089579;28;8852;-83
2022/09/13 05:32:03;;;;;;;;;19.40;18.40;;;;;20.65;56.07;99214.50;5087931;28;8844;-83
2022/09/13 05:34:33;;;;;;;;;18.00;18.00;;;;;20.68;56.06;99210.81;5088379;28;9711;-79
2022/09/13 05:37:01;;;;;;;;;18.00;17.20;;;;;20.71;55.56;99210.69;5102470;28;8856;-80
2022/09/13 05:39:30;;;;;;;;;22.00;20.80;;;;;20.82;55.64;99211.03;5090878;28;8902;-83
2022/09/13 05:42:19;;;;;;;;;29.00;26.20;;;;;20.58;55.73;99216.53;5074346;28;8915;-81
2022/09/13 05:44:47;;;;;;;;;20.60;19.00;;;;;20.64;55.59;99224.25;5070160;28;8945;-81
2022/09/13 05:47:16;;;;;;;;;20.40;19.40;;;;;20.81;54.74;99219.91;5103427;28;8986;-81
2022/09/13 05:49:46;;;;;;;;;20.00;20.00;;;;;20.91;55.12;99213.25;5069395;28;8870;-81
2022/09/13 05:52:34;;;;;;;;;19.20;19.20;;;;;21.01;55.46;99209.19;5066427;28;8840;-82
2022/09/13 05:55:03;;;;;;;;;17.60;17.60;;;;;21.12;54.75;99213.97;5060879;28;8871;-82
2022/09/13 05:57:32;;;;;;;;;21.00;19.00;;;;;21.31;54.44;99213.94;5082835;28;8991;-83
2022/09/13 06:00:01;;;;;;;;;22.40;20.40;;;;;21.41;54.12;99211.66;5056925;28;8876;-80
2022/09/13 06:02:42;;;;;;;;;19.80;18.60;;;;;21.39;53.74;99205.59;5069562;28;8963;-85
2022/09/13 06:05:33;;;;;;;;;13.60;12.80;;;;;21.35;53.74;99212.84;5052609;28;8948;-82
2022/09/13 06:08:02;;;;;;;;;18.40;17.60;;;;;21.40;53.66;99216.13;5001639;28;8871;-83
2022/09/13 06:10:31;;;;;;;;;16.80;16.60;;;;;21.60;53.42;99215.13;5048938;28;8876;-82
2022/09/13 06:12:59;;;;;;;;;19.80;19.80;;;;;21.10;54.00;99215.00;4993010;28;8964;-79
2022/09/13 06:15:28;;;;;;;;;18.20;15.80;;;;;21.15;54.08;99211.19;5021662;28;8895;-84
2022/09/13 06:17:57;;;;;;;;;27.00;25.40;;;;;21.07;54.22;99210.69;5026007;28;8865;-81
2022/09/13 06:20:26;;;;;;;;;25.40;24.00;;;;;20.99;54.57;99205.78;5005285;28;8849;-85
2022/09/13 06:22:56;;;;;;;;;22.80;22.40;;;;;20.97;54.93;99209.44;4997905;28;8857;-83
2022/09/13 06:25:25;;;;;;;;;22.60;19.60;;;;;20.74;55.44;99213.19;5014895;28;8864;-85
2022/09/13 06:27:56;;;;;;;;;21.80;21.00;;;;;21.25;54.36;99206.28;5063680;28;8878;-85
2022/09/13 06:30:26;;;;;;;;;24.40;21.60;;;;;20.90;54.86;99211.50;5030317;28;9629;-84
2022/09/13 06:32:56;;;;;;;;;23.00;20.20;;;;;21.36;54.21;99213.69;5037098;28;8958;-86
2022/09/13 06:35:25;;;;;;;;;19.40;16.00;;;;;21.64;53.38;99218.47;5040932;28;8942;-85
2022/09/13 06:37:57;;;;;;;;;19.40;19.40;;;;;21.32;52.82;99225.38;5050244;28;8882;-86
2022/09/13 06:40:26;;;;;;;;;24.40;23.20;;;;;20.98;53.56;99219.09;5033674;28;8903;-80
2022/09/13 06:42:55;;;;;;;;;15.60;14.60;;;;;21.07;53.34;99226.59;5061953;28;8875;-86
2022/09/13 06:45:23;;;;;;;;;19.20;17.00;;;;;21.23;52.92;99221.41;5096337;28;8903;-85
2022/09/13 06:47:53;;;;;;;;;17.80;17.20;;;;;20.92;53.33;99224.69;5093061;28;8842;-86
2022/09/13 06:50:22;;;;;;;;;17.00;15.00;;;;;20.63;54.74;99232.25;5074196;28;8904;-83
2022/09/13 06:52:50;;;;;;;;;19.20;17.80;;;;;20.84;54.02;99233.88;5076274;28;8854;-82
2022/09/13 06:55:21;;;;;;;;;9.20;8.40;;;;;20.68;53.77;99232.03;5078908;28;9620;-84
2022/09/13 06:57:49;;;;;;;;;16.20;16.20;;;;;20.52;54.26;99235.34;5075128;28;8854;-82
2022/09/13 07:00:18;;;;;;;;;15.60;14.60;;;;;20.70;54.00;99238.09;5083431;28;8848;-82
2022/09/13 07:02:51;;;;;;;;;16.00;13.80;;;;;20.72;53.40;99241.53;5088805;28;9889;-82
2022/09/13 07:05:19;;;;;;;;;13.80;13.00;;;;;20.92;53.16;99244.09;5073117;28;8853;-81
2022/09/13 07:07:49;;;;;;;;;19.20;17.20;;;;;21.39;51.59;99240.06;5072918;28;8874;-82
2022/09/13 07:10:17;;;;;;;;;16.20;14.40;;;;;21.03;51.86;99238.28;5107017;28;8850;-83
2022/09/13 07:12:47;;;;;;;;;16.20;16.20;;;;;21.05;51.33;99241.72;5081300;28;8862;-70
2022/09/13 07:15:16;;;;;;;;;12.80;12.80;;;;;21.50;50.58;99243.06;5072052;28;8873;-76
2022/09/13 07:17:45;;;;;;;;;15.40;15.40;;;;;21.14;51.13;99243.09;5052014;28;8882;-74
2022/09/13 07:20:13;;;;;;;;;13.60;13.60;;;;;20.83;52.82;99244.53;5070953;28;8838;-73
2022/09/13 07:22:42;;;;;;;;;17.00;16.40;;;;;20.73;53.74;99249.41;5086298;28;8858;-76
2022/09/13 07:25:10;;;;;;;;;16.20;15.60;;;;;20.77;52.56;99239.53;5068864;28;8850;-77
2022/09/13 07:27:39;;;;;;;;;13.20;12.80;;;;;20.97;51.30;99239.44;5069875;28;9545;-80
2022/09/13 07:30:10;;;;;;;;;15.00;15.00;;;;;20.63;52.56;99242.84;5069745;28;9607;-75
2022/09/13 07:32:39;;;;;;;;;15.40;14.20;;;;;20.97;51.33;99234.16;5070245;28;8892;-74
2022/09/13 07:35:07;;;;;;;;;13.20;13.20;;;;;20.69;53.21;99237.25;5068497;28;8858;-74
2022/09/13 07:37:36;;;;;;;;;16.00;14.80;;;;;21.14;51.64;99237.78;5088856;28;8896;-81
2022/09/13 07:40:06;;;;;;;;;17.60;15.20;;;;;21.54;49.94;99246.44;5110783;28;8955;-81
2022/09/13 07:42:34;;;;;;;;;17.00;15.80;;;;;21.79;49.74;99238.91;5069291;28;8878;-80
2022/09/13 07:45:03;;;;;;;;;11.40;11.40;;;;;21.85;49.74;99245.72;5052351;28;8828;-79
2022/09/13 07:47:34;;;;;;;;;11.00;10.80;;;;;22.10;49.02;99247.13;5052546;28;8880;-80
2022/09/13 07:50:02;;;;;;;;;15.20;15.20;;;;;21.84;48.59;99244.00;5036124;28;8848;-80
2022/09/13 07:52:33;;;;;;;;;12.20;12.00;;;;;21.51;50.15;99243.94;5035906;28;8862;-80
2022/09/13 07:55:01;;;;;;;;;13.20;11.60;;;;;21.89;49.71;99243.75;5064880;28;8854;-79
2022/09/13 07:57:30;;;;;;;;;14.20;13.40;;;;;21.53;50.40;99248.25;5048383;28;8870;-80
2022/09/13 08:00:00;;;;;;;;;12.40;12.40;;;;;21.25;50.38;99239.88;5028135;28;8848;-79
2022/09/13 08:02:40;;;;;;;;;13.20;13.20;;;;;;;;5028197;28;9671;-78
2022/09/13 08:05:13;;;;;;;;;13.40;13.40;;;;;21.70;49.88;99242.06;4992820;28;8853;-79
2022/09/13 08:07:41;;;;;;;;;10.40;10.40;;;;;22.15;48.24;99245.03;5027613;28;8989;-79
2022/09/13 08:10:10;;;;;;;;;13.00;12.00;;;;;22.11;46.40;99241.69;5010794;28;8844;-80
2022/09/13 08:12:38;;;;;;;;;12.80;11.20;;;;;22.31;46.09;99247.78;5011004;28;8868;-79
2022/09/13 08:15:07;;;;;;;;;9.40;9.40;;;;;22.29;45.97;99247.03;5046683;28;8955;-79
2022/09/13 08:17:36;;;;;;;;;12.40;11.40;;;;;22.55;45.65;99243.81;5031811;28;8869;-81
2022/09/13 08:20:07;;;;;;;;;10.00;10.00;;;;;22.91;44.98;99241.81;5047687;28;8984;-79
2022/09/13 08:22:38;;;;;;;;;13.80;13.40;;;;;22.86;44.23;99243.91;5047217;28;8847;-81
2022/09/13 08:25:07;;;;;;;;;10.20;10.20;;;;;22.03;46.52;99249.22;5031595;28;8863;-80
2022/09/13 08:27:35;;;;;;;;;11.20;9.60;;;;;21.85;46.68;99240.41;5030549;28;8871;-80
2022/09/13 08:30:05;;;;;;;;;10.80;10.80;;;;;21.76;45.39;99248.88;5030247;28;8836;-79
2022/09/13 08:32:34;;;;;;;;;10.80;10.80;;;;;21.79;45.70;99244.22;5030958;28;8883;-82
2022/09/13 08:35:02;;;;;;;;;10.80;10.00;;;;;22.06;44.61;99248.19;5065923;28;9699;-81
2022/09/13 08:37:34;;;;;;;;;10.20;9.00;;;;;21.74;44.60;99262.22;5071065;27;8856;-79
2022/09/13 08:40:03;;;;;;;;;11.40;11.40;;;;;21.84;43.36;99246.66;5087084;28;8890;-78
2022/09/13 08:42:46;;;;;;;;;9.00;8.00;;;;;21.99;44.03;99245.88;5086758;28;8904;-82
2022/09/13 08:45:15;;;;;;;;;9.60;9.60;;;;;21.83;43.17;99258.22;5089246;28;8998;-81
2022/09/13 08:47:50;;;;;;;;;10.80;10.00;;;;;22.06;42.33;99256.16;5080334;28;8888;-83
2022/09/13 08:50:22;;;;;;;;;13.40;10.60;;;;;21.73;43.37;99256.97;5085125;28;8843;-80
2022/09/13 08:53:12;;;;;;;;;10.00;10.00;;;;;21.47;43.40;99251.19;5072746;28;8951;-81
2022/09/13 08:55:50;;;;;;;;;9.00;8.00;;;;;21.61;43.01;99255.81;5091943;28;8864;-80
2022/09/13 08:58:45;;;;;;;;;8.00;8.00;;;;;21.95;42.03;99240.81;5092919;28;8843;-81
2022/09/13 09:01:25;;;;;;;;;10.20;9.20;;;;;21.89;41.54;99249.06;5090375;28;8876;-84
2022/09/13 09:03:59;;;;;;;;;9.40;8.40;;;;;21.83;42.02;99233.47;5090553;28;8966;-80
2022/09/13 09:06:28;;;;;;;;;9.00;8.80;;;;;21.89;40.86;99239.31;5070294;28;8870;-83
2022/09/13 09:09:04;;;;;;;;;6.60;6.60;;;;;21.83;40.73;99234.31;5080088;28;8870;-80
2022/09/13 09:11:41;;;;;;;;;7.60;7.60;;;;;22.14;39.33;99238.88;5085801;28;8854;-79
2022/09/13 09:14:19;;;;;;;;;9.40;9.40;;;;;22.36;39.09;99235.97;5070553;28;8850;-80
2022/09/13 09:16:52;;;;;;;;;10.40;10.40;;;;;22.69;37.97;99231.56;5082668;28;9656;-80
2022/09/13 09:19:29;;;;;;;;;7.20;7.20;;;;;22.35;38.80;99230.75;5089641;28;8851;-82
2022/09/13 09:21:58;;;;;;;;;9.40;9.40;;;;;22.07;39.57;99234.84;5091459;28;9799;-80
2022/09/13 09:24:35;;;;;;;;;10.40;10.40;;;;;22.83;39.52;99226.31;5107984;28;8966;-79
2022/09/13 09:27:14;;;;;;;;;8.00;8.00;;;;;23.01;37.40;99229.75;5114727;27;8865;-79
2022/09/13 09:29:45;;;;;;;;;10.80;10.20;;;;;22.97;37.71;99226.41;5086351;28;8869;-77
2022/09/13 09:32:28;;;;;;;;;13.20;12.80;;;;;23.22;37.34;99221.50;5105244;27;8865;-79
2022/09/13 09:35:10;;;;;;;;;10.20;10.20;;;;;23.06;36.71;99225.06;5079371;28;8955;-78
2022/09/13 09:37:41;;;;;;;;;10.20;9.20;;;;;23.16;36.94;99212.94;5058600;28;8893;-81
2022/09/13 09:40:15;;;;;;;;;8.20;7.80;;;;;23.31;36.27;99221.81;5058484;28;9720;-80
2022/09/13 09:42:46;;;;;;;;;11.40;11.40;;;;;22.88;37.50;99218.94;5077184;28;8995;-80
2022/09/13 09:45:26;;;;;;;;;9.20;8.40;;;;;22.91;36.97;99221.44;5083682;28;8969;-82
2022/09/13 09:47:56;;;;;;;;;7.00;7.00;;;;;22.95;36.27;99207.00;5075918;28;8859;-81
2022/09/13 09:50:29;;;;;;;;;9.40;9.40;;;;;23.06;36.62;99213.53;5088558;28;8843;-80
2022/09/13 09:53:03;;;;;;;;;12.80;9.40;;;;;23.01;36.04;99216.44;5111473;27;8904;-79
2022/09/13 09:55:41;;;;;;;;;6.20;6.20;;;;;22.60;34.46;99224.94;5083432;28;8854;-80
2022/09/13 09:58:11;;;;;;;;;8.80;8.80;;;;;22.90;34.47;99201.09;5088419;28;8921;-79
2022/09/13 10:00:52;;;;;;;;;6.00;6.00;;;;;22.63;34.33;99215.94;5094769;28;8830;-79
2022/09/13 10:03:26;;;;;;;;;9.40;7.80;;;;;22.81;33.90;99214.91;5047596;28;9584;-80
2022/09/13 10:06:05;;;;;;;;;8.80;8.60;;;;;22.92;34.31;99207.19;5022528;28;8848;-81
2022/09/13 10:08:36;;;;;;;;;7.80;7.80;;;;;23.04;34.18;99213.63;5049583;28;8910;-80
2022/09/13 10:11:08;;;;;;;;;6.40;6.40;;;;;23.58;32.65;99201.66;5046683;28;8842;-80
2022/09/13 10:13:37;;;;;;;;;9.60;8.80;;;;;23.71;32.44;99206.16;5047349;28;8884;-79
2022/09/13 10:16:15;;;;;;;;;10.20;10.20;;;;;23.59;32.05;99214.88;5045579;28;8944;-82
2022/09/13 10:18:43;;;;;;;;;5.40;5.40;;;;;23.36;32.67;99218.88;5056502;28;8887;-78
2022/09/13 10:21:24;;;;;;;;;4.80;4.60;;;;;24.02;31.22;99214.97;5049571;28;8992;-80
2022/09/13 10:24:17;;;;;;;;;2.20;2.20;;;;;24.45;27.78;99200.78;5054423;28;8848;-80
2022/09/13 10:26:47;;;;;;;;;3.00;3.00;;;;;24.79;27.95;99207.50;5013187;28;8959;-79
2022/09/13 10:29:18;;;;;;;;;2.80;2.80;;;;;25.11;27.35;99196.53;5052713;28;9599;-82
2022/09/13 10:31:52;;;;;;;;;3.00;3.00;;;;;25.57;26.92;99203.28;5044778;28;8842;-81
2022/09/13 10:34:24;;;;;;;;;4.00;4.00;;;;;25.54;25.47;99192.81;5059386;28;9489;-79
2022/09/13 10:36:57;;;;;;;;;3.00;3.00;;;;;25.82;27.02;99199.78;5082312;28;8939;-79
2022/09/13 10:39:28;;;;;;;;;5.00;5.00;;;;;26.11;26.34;99203.16;5066689;28;8885;-80
2022/09/13 10:42:02;;;;;;;;;4.00;4.00;;;;;25.68;25.70;99204.25;5068475;28;8896;-78
2022/09/13 10:44:38;;;;;;;;;3.00;3.00;;;;;25.91;26.13;99207.16;5073540;28;8870;-81
2022/09/13 10:47:16;;;;;;;;;3.80;3.80;;;;;26.20;26.04;99194.47;5088228;28;8851;-83
2022/09/13 10:49:48;;;;;;;;;3.80;3.80;;;;;26.47;25.79;99195.28;5040622;28;8870;-81
2022/09/13 10:52:31;;;;;;;;;4.00;4.00;;;;;26.73;26.51;99193.41;5092885;28;9028;-81
2022/09/13 10:55:34;;;;;;;;;4.20;4.20;;;;;27.03;26.04;99191.16;5088975;28;8835;-81
2022/09/13 10:58:16;;;;;;;;;4.80;4.80;;;;;25.80;26.45;99189.22;5029491;28;8850;-81
2022/09/13 11:01:01;;;;;;;;;4.60;4.60;;;;;25.83;26.59;99191.66;5013649;28;8858;-79
2022/09/13 11:03:48;;;;;;;;;4.40;4.40;;;;;25.92;26.91;99197.34;5029673;28;9588;-79
2022/09/13 11:06:27;;;;;;;;;4.60;4.60;;;;;26.00;27.13;99192.34;5032445;28;8838;-81
2022/09/13 11:09:03;;;;;;;;;3.80;3.80;;;;;25.98;26.88;99194.28;5000590;28;8856;-82
2022/09/13 11:11:40;;;;;;;;;4.20;4.20;;;;;26.66;26.88;99192.16;5032781;28;8958;-78
2022/09/13 11:14:26;;;;;;;;;3.40;3.40;;;;;26.25;26.13;99186.13;4998742;28;8951;-81
2022/09/13 11:17:03;;;;;;;;;3.00;3.00;;;;;26.28;26.51;99191.25;5047938;28;8854;-82
2022/09/13 11:19:54;;;;;;;;;3.80;2.20;;;;;26.97;25.79;99180.03;5031234;28;8972;-81
2022/09/13 11:22:44;;;;;;;;;6.40;6.40;;;;;26.60;25.12;99180.94;5028413;28;8879;-80
2022/09/13 11:25:26;;;;;;;;;8.00;8.00;;;;;26.51;25.52;99178.91;5032379;28;8970;-81
2022/09/13 11:28:03;;;;;;;;;3.40;3.40;;;;;26.95;25.22;99171.28;5030662;28;9616;-81
2022/09/13 11:30:41;;;;;;;;;3.00;3.00;;;;;27.07;24.79;99173.06;5077748;28;9554;-79
2022/09/13 11:33:32;;;;;;;;;4.00;4.00;;;;;25.96;25.02;99178.34;5071245;28;8866;-79
2022/09/13 11:36:18;;;;;;;;;4.20;4.20;;;;;26.42;25.07;99169.72;5118922;27;8886;-81
2022/09/13 11:39:02;;;;;;;;;3.00;3.00;;;;;27.10;25.64;99158.56;5102881;27;8831;-80
2022/09/13 11:41:40;;;;;;;;;4.00;4.00;;;;;26.59;24.81;99157.81;5105467;27;8899;-80
2022/09/13 11:44:28;;;;;;;;;3.80;3.80;;;;;27.10;25.00;99142.50;5084467;28;8961;-81
2022/09/13 11:47:08;;;;;;;;;4.00;4.00;;;;;27.05;24.46;99156.22;5058922;28;8860;-79
2022/09/13 11:49:54;;;;;;;;;7.20;6.00;;;;;26.97;24.58;99154.13;5099031;28;8896;-81
2022/09/13 11:52:32;;;;;;;;;3.80;3.60;;;;;27.42;24.46;99148.97;5091305;28;8946;-81
2022/09/13 11:55:14;;;;;;;;;4.00;2.40;;;;;27.60;23.56;99140.50;5052153;28;8911;-81
2022/09/13 11:57:47;;;;;;;;;4.00;4.00;;;;;28.08;23.62;99126.06;5071309;28;8842;-81
2022/09/13 12:00:22;;;;;;;;;3.00;3.00;;;;;28.36;22.71;99124.69;5079046;28;8883;-81